Time;durP1;ratioP1;P1;durP2;ratioP2;P2;SDS_P1;SDS_P2;PMS_P1;PMS_P2;Temp;Humidity;BMP_temperature;BMP_pressure;BME280_temperature;BME280_humidity;BME280_pressure;Samples;Min_cycle;Max_cycle;Signal;HPM_P1;HPM_P2
2022/12/06 00:01:10;;;;;;;15.30;11.57;;;-5.40;99.90;;;;;;5020396;28;20437;-75
2022/12/06 00:03:37;;;;;;;16.60;12.13;;;-6.40;99.90;;;;;;5027728;28;20933;-75
2022/12/06 00:06:08;;;;;;;13.20;10.90;;;-6.50;99.90;;;;;;5024761;28;20474;-76
2022/12/06 00:08:34;;;;;;;13.40;10.43;;;-6.60;99.90;;;;;;5027099;28;20440;-77
2022/12/06 00:11:06;;;;;;;15.17;9.83;;;-6.50;99.90;;;;;;5019610;28;20451;-75
2022/12/06 00:13:33;;;;;;;13.00;10.27;;;-6.60;99.90;;;;;;5018184;28;20846;-75
2022/12/06 00:16:04;;;;;;;14.40;10.70;;;-6.70;99.90;;;;;;5018172;28;20180;-78
2022/12/06 00:18:32;;;;;;;13.07;9.77;;;-6.90;99.90;;;;;;5021976;28;20429;-73
2022/12/06 00:21:07;;;;;;;12.57;9.40;;;-7.20;99.90;;;;;;5017372;28;20433;-74
2022/12/06 00:23:36;;;;;;;8.80;7.90;;;-7.30;99.90;;;;;;5016541;28;20441;-75
2022/12/06 00:26:02;;;;;;;12.83;10.30;;;-6.10;99.90;;;;;;5017914;28;20744;-75
2022/12/06 00:28:28;;;;;;;11.87;9.10;;;-6.70;99.90;;;;;;5018214;28;20433;-78
2022/12/06 00:31:01;;;;;;;12.03;9.23;;;-6.70;99.90;;;;;;5017002;28;20232;-76
2022/12/06 00:33:27;;;;;;;15.57;9.90;;;-6.80;99.90;;;;;;5016395;28;20275;-75
2022/12/06 00:35:59;;;;;;;10.40;8.63;;;-7.20;99.90;;;;;;5017084;28;20466;-78
2022/12/06 00:38:26;;;;;;;14.73;10.10;;;-6.60;99.90;;;;;;5017329;28;20868;-74
2022/12/06 00:41:03;;;;;;;12.10;9.57;;;-6.60;99.90;;;;;;5020117;28;20438;-86
2022/12/06 00:43:30;;;;;;;14.70;9.27;;;-6.90;99.90;;;;;;5021514;28;20426;-79
2022/12/06 00:45:56;;;;;;;10.23;7.77;;;-6.70;99.90;;;;;;5019332;28;20215;-74
2022/12/06 00:48:22;;;;;;;11.63;9.57;;;-6.60;99.90;;;;;;5016491;28;20465;-74
2022/12/06 00:50:49;;;;;;;9.27;8.37;;;-6.50;99.90;;;;;;5017185;28;20216;-74
2022/12/06 00:53:15;;;;;;;11.17;8.57;;;-6.70;99.90;;;;;;5015995;28;20189;-75
2022/12/06 00:55:42;;;;;;;9.90;8.90;;;-6.50;99.90;;;;;;5016363;28;20452;-78
2022/12/06 00:58:09;;;;;;;11.83;8.93;;;-6.50;99.90;;;;;;5017324;28;20182;-80
2022/12/06 01:00:35;;;;;;;9.63;8.17;;;-6.30;99.90;;;;;;5015795;28;20449;-75
2022/12/06 01:03:01;;;;;;;14.67;9.83;;;-6.50;99.90;;;;;;5015783;28;20429;-80
2022/12/06 01:05:27;;;;;;;12.63;10.13;;;-6.50;99.90;;;;;;5022807;28;20594;-78
2022/12/06 01:07:54;;;;;;;11.37;9.57;;;-6.70;99.90;;;;;;5015501;28;20308;-75
2022/12/06 01:10:20;;;;;;;13.67;8.80;;;-6.60;99.90;;;;;;5015674;28;20591;-74
2022/12/06 01:12:46;;;;;;;10.43;8.33;;;-6.60;99.90;;;;;;5015451;28;20458;-75
2022/12/06 01:15:12;;;;;;;9.63;8.60;;;-6.60;99.90;;;;;;5015353;28;20445;-75
2022/12/06 01:17:38;;;;;;;11.13;8.73;;;-5.90;99.90;;;;;;5015487;28;20484;-81
2022/12/06 01:20:05;;;;;;;10.60;8.93;;;-5.50;99.90;;;;;;5016265;28;20260;-75
2022/12/06 01:22:31;;;;;;;11.13;9.13;;;-6.40;99.90;;;;;;5018413;28;20584;-78
2022/12/06 01:24:57;;;;;;;10.13;8.03;;;-6.20;99.90;;;;;;5018687;28;20438;-74
2022/12/06 01:27:23;;;;;;;10.13;8.57;;;-6.30;99.90;;;;;;5015135;28;20434;-74
2022/12/06 01:29:49;;;;;;;12.63;8.90;;;-5.60;99.90;;;;;;5015082;28;20469;-74
2022/12/06 01:32:15;;;;;;;12.90;10.10;;;-6.60;99.90;;;;;;5015100;28;20216;-76
2022/12/06 01:34:42;;;;;;;9.57;8.67;;;-6.40;99.90;;;;;;5015748;28;20185;-74
2022/12/06 01:37:08;;;;;;;10.13;9.10;;;-6.70;99.90;;;;;;5015162;28;20462;-75
2022/12/06 01:39:33;;;;;;;13.83;10.67;;;-6.70;99.90;;;;;;5014809;28;20434;-74
2022/12/06 01:41:59;;;;;;;9.80;8.57;;;-7.00;99.90;;;;;;5046906;28;20188;-75
2022/12/06 01:44:48;;;;;;;10.50;9.20;;;-6.90;99.90;;;;;;5027277;28;20183;-75
2022/12/06 01:47:20;;;;;;;9.27;7.90;;;-7.10;99.90;;;;;;5015891;28;20216;-76
2022/12/06 01:49:51;;;;;;;10.83;9.10;;;-5.30;99.90;;;;;;5015775;28;20957;-75
2022/12/06 01:52:19;;;;;;;12.10;9.40;;;-5.70;99.90;;;;;;5024842;28;20460;-74
2022/12/06 01:54:45;;;;;;;12.87;8.23;;;-6.80;99.90;;;;;;5021798;28;20567;-74
2022/12/06 01:57:14;;;;;;;9.03;7.80;;;-6.80;99.90;;;;;;5023468;28;20885;-78
2022/12/06 01:59:40;;;;;;;10.37;8.63;;;-6.50;99.90;;;;;;5022355;28;20181;-74
2022/12/06 02:02:07;;;;;;;9.80;8.33;;;-6.50;99.90;;;;;;5015154;28;20519;-75
2022/12/06 02:04:33;;;;;;;9.27;8.27;;;-6.50;99.90;;;;;;5015003;28;20454;-82
2022/12/06 02:07:00;;;;;;;8.37;7.17;;;-6.50;99.90;;;;;;5017406;28;20465;-78
2022/12/06 02:09:28;;;;;;;10.90;8.30;;;-7.10;99.90;;;;;;5019075;28;20486;-77
2022/12/06 02:11:54;;;;;;;12.70;8.53;;;-6.70;99.90;;;;;;5018817;28;20612;-74
2022/12/06 02:14:25;;;;;;;11.20;8.30;;;-6.60;99.90;;;;;;5018705;28;20949;-74
2022/12/06 02:16:53;;;;;;;9.40;8.27;;;-6.70;99.90;;;;;;5018776;28;20188;-79
2022/12/06 02:19:47;;;;;;;9.33;7.70;;;-6.80;99.90;;;;;;5032091;28;20562;-75
2022/12/06 02:22:21;;;;;;;12.33;8.63;;;-6.70;99.90;;;;;;5019201;28;20462;-77
2022/12/06 02:24:50;;;;;;;10.63;8.50;;;-6.60;99.90;;;;;;5033059;28;20778;-76
2022/12/06 02:27:53;;;;;;;13.00;9.03;;;-6.90;99.90;;;;;;5030227;28;20527;-77
2022/12/06 02:30:40;;;;;;;9.20;8.30;;;-6.80;99.90;;;;;;5023157;28;20492;-74
2022/12/06 02:33:19;;;;;;;8.97;8.07;;;-6.60;99.90;;;;;;5018508;28;20433;-80
2022/12/06 02:36:03;;;;;;;9.20;8.30;;;-6.50;99.90;;;;;;5018865;28;20426;-81
2022/12/06 02:38:29;;;;;;;8.00;7.10;;;-6.70;99.90;;;;;;5018779;28;20431;-83
2022/12/06 02:41:06;;;;;;;8.27;7.47;;;-6.50;99.90;;;;;;5019068;28;20426;-84
2022/12/06 02:43:41;;;;;;;14.90;8.47;;;-6.60;99.90;;;;;;5018689;28;20609;-84
2022/12/06 02:46:10;;;;;;;9.70;8.70;;;-6.60;99.90;;;;;;5019111;28;20426;-83
2022/12/06 02:48:38;;;;;;;12.70;8.23;;;-6.10;99.90;;;;;;5018895;28;20510;-86
2022/12/06 02:51:11;;;;;;;10.17;7.77;;;-6.30;99.90;;;;;;5018585;28;20621;-84
2022/12/06 02:53:41;;;;;;;13.07;8.37;;;-6.30;99.90;;;;;;5018409;28;20501;-85
2022/12/06 02:56:07;;;;;;;8.50;7.27;;;-6.30;99.90;;;;;;5023601;28;20521;-84
2022/12/06 02:58:35;;;;;;;7.97;7.20;;;-7.20;99.90;;;;;;5018287;28;20177;-84
2022/12/06 03:01:05;;;;;;;10.33;7.63;;;-7.00;99.90;;;;;;5021293;28;20262;-79
2022/12/06 03:03:48;;;;;;;9.07;8.13;;;-7.10;99.90;;;;;;5018693;28;20800;-74
2022/12/06 03:06:33;;;;;;;9.77;8.77;;;-6.40;99.90;;;;;;5017370;28;20212;-82
2022/12/06 03:09:04;;;;;;;9.07;8.17;;;-6.70;99.90;;;;;;5017714;28;20422;-75
2022/12/06 03:11:54;;;;;;;8.80;7.63;;;-6.50;99.90;;;;;;5017471;28;20592;-83
2022/12/06 03:14:33;;;;;;;9.17;6.97;;;-6.70;99.90;;;;;;5018038;28;20514;-81
2022/12/06 03:17:33;;;;;;;10.70;7.60;;;-6.50;99.90;;;;;;5018458;28;20424;-85
2022/12/06 03:20:09;;;;;;;8.77;7.87;;;-6.40;99.90;;;;;;5025425;28;20857;-87
2022/12/06 03:22:44;;;;;;;11.27;8.57;;;-6.10;99.90;;;;;;5018613;28;20878;-87
2022/12/06 03:25:10;;;;;;;11.60;7.80;;;-6.40;99.90;;;;;;5018806;28;20893;-86
2022/12/06 03:27:38;;;;;;;12.20;9.17;;;-6.30;99.90;;;;;;5027118;28;20464;-86
2022/12/06 03:30:10;;;;;;;10.10;9.00;;;-6.00;99.90;;;;;;5024098;28;20185;-86
2022/12/06 03:32:40;;;;;;;10.30;8.07;;;-6.40;99.90;;;;;;5018014;28;20549;-86
2022/12/06 03:35:09;;;;;;;9.93;7.80;;;-6.40;99.90;;;;;;5017865;28;20423;-84
2022/12/06 03:37:38;;;;;;;13.57;11.20;;;-6.30;99.90;;;;;;5019463;28;20430;-85
2022/12/06 03:40:20;;;;;;;12.53;10.20;;;-7.20;99.90;;;;;;5020075;28;20498;-85
2022/12/06 03:42:48;;;;;;;16.40;10.40;;;-7.10;99.90;;;;;;5021200;28;20764;-85
2022/12/06 03:45:14;;;;;;;13.43;10.90;;;-6.90;99.90;;;;;;5022855;28;20713;-85
2022/12/06 03:48:15;;;;;;;14.20;11.93;;;-7.00;99.90;;;;;;5017152;28;20185;-79
2022/12/06 03:50:49;;;;;;;13.13;9.40;;;-6.90;99.90;;;;;;5016774;28;20207;-74
2022/12/06 03:53:18;;;;;;;16.37;9.93;;;-6.70;99.90;;;;;;5017707;28;20441;-75
2022/12/06 03:55:44;;;;;;;13.07;9.73;;;-7.10;99.90;;;;;;5016489;28;20446;-78
2022/12/06 03:58:11;;;;;;;11.40;9.87;;;-6.50;99.90;;;;;;5017457;28;20917;-79
2022/12/06 04:00:36;;;;;;;12.53;9.73;;;-6.80;99.90;;;;;;5049523;28;20184;-79
2022/12/06 04:03:02;;;;;;;12.90;9.80;;;-7.10;99.90;;;;;;5016394;28;20426;-80
2022/12/06 04:05:28;;;;;;;14.07;8.63;;;-6.80;99.90;;;;;;5016864;28;20189;-80
2022/12/06 04:07:54;;;;;;;11.47;9.77;;;-7.00;99.90;;;;;;5016598;28;20261;-80
2022/12/06 04:10:19;;;;;;;12.97;9.80;;;-7.00;99.90;;;;;;5016591;28;20184;-75
2022/12/06 04:13:00;;;;;;;12.77;9.57;;;-6.50;99.90;;;;;;5016231;28;20201;-74
2022/12/06 04:15:37;;;;;;;10.23;8.63;;;-6.70;99.90;;;;;;5016395;28;20497;-77
2022/12/06 04:18:14;;;;;;;11.73;9.40;;;-6.70;99.90;;;;;;5017009;28;20445;-87
2022/12/06 04:23:49;;;;;;;15.00;9.57;;;-7.80;99.90;;;;;;5016748;28;20742;-86
2022/12/06 04:26:20;;;;;;;11.80;8.63;;;-8.10;99.90;;;;;;5016842;28;20476;-84
2022/12/06 04:39:44;;;;;;;10.23;7.57;;;-6.20;99.90;;;;;;5016187;28;20549;-74
2022/12/06 04:44:55;;;;;;;11.17;8.30;;;-7.20;99.90;;;;;;5016080;28;20447;-76
2022/12/06 04:47:21;;;;;;;9.90;8.27;;;-7.30;99.90;;;;;;5020185;28;20857;-89
2022/12/06 04:49:47;;;;;;;10.30;7.07;;;-5.30;99.90;;;;;;5018488;28;20616;-88
2022/12/06 04:52:13;;;;;;;10.90;8.27;;;-6.70;99.90;;;;;;5017425;28;20450;-88
2022/12/06 04:54:40;;;;;;;14.30;8.80;;;-6.50;99.90;;;;;;5031892;28;20897;-86
2022/12/06 04:57:09;;;;;;;12.07;8.30;;;-6.00;99.90;;;;;;5016269;28;20468;-86
2022/12/06 04:59:37;;;;;;;11.60;7.57;;;-6.30;99.90;;;;;;5016282;28;20512;-86
2022/12/06 05:02:03;;;;;;;10.33;7.83;;;-6.50;99.90;;;;;;5015764;28;20437;-74
2022/12/06 05:04:30;;;;;;;11.80;8.17;;;-6.20;99.90;;;;;;5015236;28;20503;-76
2022/12/06 05:06:55;;;;;;;9.27;7.30;;;-5.60;99.90;;;;;;5015452;28;20745;-74
2022/12/06 05:09:21;;;;;;;10.43;7.67;;;-6.00;99.90;;;;;;5014175;28;21019;-74
2022/12/06 05:11:47;;;;;;;10.00;7.20;;;-6.20;99.90;;;;;;5015303;28;20201;-74
2022/12/06 05:14:13;;;;;;;11.90;8.50;;;-5.40;99.90;;;;;;5015366;28;20227;-75
2022/12/06 05:16:39;;;;;;;13.60;8.80;;;-6.00;99.90;;;;;;5014995;28;20181;-75
2022/12/06 05:19:06;;;;;;;11.70;8.33;;;-6.00;99.90;;;;;;5015603;28;20535;-75
2022/12/06 05:21:32;;;;;;;15.37;7.80;;;-6.30;99.90;;;;;;5015966;28;20335;-77
2022/12/06 05:23:58;;;;;;;11.37;8.83;;;-5.20;99.90;;;;;;5015151;28;20487;-82
2022/12/06 05:26:27;;;;;;;12.10;8.07;;;-4.60;99.90;;;;;;5015528;28;20185;-83
2022/12/06 05:28:54;;;;;;;14.40;8.23;;;-5.30;99.90;;;;;;5020564;28;20200;-85
2022/12/06 05:31:20;;;;;;;9.60;6.57;;;-6.20;99.90;;;;;;5018089;28;20921;-76
2022/12/06 05:33:46;;;;;;;16.13;9.30;;;-6.00;99.90;;;;;;5027383;28;20434;-74
2022/12/06 05:36:17;;;;;;;12.20;8.97;;;-6.00;99.90;;;;;;5015276;28;20458;-75
2022/12/06 05:38:44;;;;;;;12.17;8.10;;;-5.90;99.90;;;;;;5015170;28;20434;-76
2022/12/06 05:41:11;;;;;;;12.03;8.20;;;-4.70;99.90;;;;;;5016155;28;20460;-75
2022/12/06 05:43:37;;;;;;;10.80;8.37;;;-6.20;99.90;;;;;;5019431;28;20437;-77
2022/12/06 05:46:03;;;;;;;15.53;8.87;;;-6.30;99.90;;;;;;5019081;28;20436;-75
2022/12/06 05:48:28;;;;;;;8.63;7.73;;;-6.90;99.90;;;;;;5019266;28;20219;-74
2022/12/06 05:50:54;;;;;;;17.83;10.37;;;-6.40;99.90;;;;;;5018920;28;20897;-80
2022/12/06 05:53:20;;;;;;;15.63;9.50;;;-6.20;99.90;;;;;;5019332;28;20180;-78
2022/12/06 05:55:46;;;;;;;23.23;8.83;;;-6.40;99.90;;;;;;5018772;28;20619;-75
2022/12/06 05:58:12;;;;;;;10.17;8.80;;;-5.10;99.90;;;;;;5018931;28;20188;-75
2022/12/06 06:00:38;;;;;;;13.10;10.07;;;-6.50;99.90;;;;;;5018796;28;20435;-74
2022/12/06 06:03:04;;;;;;;12.93;9.10;;;-5.80;99.90;;;;;;5018993;28;20516;-74
2022/12/06 06:05:30;;;;;;;11.47;7.70;;;-6.70;99.90;;;;;;5019201;28;20606;-77
2022/12/06 06:07:56;;;;;;;14.37;9.50;;;-5.60;99.90;;;;;;5018900;28;20183;-77
2022/12/06 06:10:23;;;;;;;10.73;8.67;;;-6.70;99.90;;;;;;5018490;28;20184;-78
2022/12/06 06:12:49;;;;;;;11.27;8.97;;;-6.60;99.90;;;;;;5018263;28;20543;-77
2022/12/06 06:15:15;;;;;;;11.43;8.17;;;-6.70;99.90;;;;;;5018466;28;20521;-74
2022/12/06 06:17:42;;;;;;;17.23;9.90;;;-7.00;99.90;;;;;;5018510;28;20205;-82
2022/12/06 06:20:10;;;;;;;12.20;9.20;;;-6.70;99.90;;;;;;5018694;28;20744;-83
2022/12/06 06:22:37;;;;;;;15.47;8.73;;;-6.90;99.90;;;;;;5018698;28;20211;-84
2022/12/06 06:25:04;;;;;;;14.70;9.03;;;-6.30;99.90;;;;;;5018140;28;20449;-84
2022/12/06 06:27:36;;;;;;;13.23;7.93;;;-6.70;99.90;;;;;;5030871;28;20488;-86
2022/12/06 06:30:05;;;;;;;11.37;8.27;;;-6.90;99.90;;;;;;5018387;28;20441;-82
2022/12/06 06:32:30;;;;;;;15.93;8.63;;;-6.90;99.90;;;;;;5023215;28;20469;-77
2022/12/06 06:34:56;;;;;;;12.60;8.73;;;-6.40;99.90;;;;;;5018534;28;20525;-75
2022/12/06 06:37:22;;;;;;;12.60;8.20;;;-6.00;99.90;;;;;;5018663;28;20366;-74
2022/12/06 06:39:48;;;;;;;11.20;8.47;;;-5.80;99.90;;;;;;5018419;28;20237;-73
2022/12/06 06:42:23;;;;;;;16.63;9.13;;;-4.70;99.90;;;;;;5018170;28;20180;-76
2022/12/06 06:44:48;;;;;;;14.67;8.53;;;-5.60;99.90;;;;;;5018613;28;20222;-78
2022/12/06 06:47:14;;;;;;;13.17;8.33;;;-5.10;99.90;;;;;;5027495;28;20488;-81
2022/12/06 06:49:40;;;;;;;22.77;11.90;;;-5.90;99.90;;;;;;5026437;28;20168;-85
2022/12/06 06:52:06;;;;;;;24.67;12.43;;;-5.80;99.90;;;;;;5016521;28;20193;-86
2022/12/06 06:54:32;;;;;;;22.87;12.67;;;-6.10;99.90;;;;;;5018189;28;20442;-80
2022/12/06 06:56:57;;;;;;;20.40;11.33;;;-5.90;99.90;;;;;;5018590;28;20177;-81
2022/12/06 06:59:23;;;;;;;19.53;11.07;;;-5.90;99.90;;;;;;5018204;28;20220;-75
2022/12/06 07:01:50;;;;;;;11.17;8.10;;;-5.90;99.90;;;;;;5018151;28;20185;-77
2022/12/06 07:04:22;;;;;;;12.97;8.17;;;-5.90;99.90;;;;;;5017873;28;20446;-75
2022/12/06 07:06:49;;;;;;;9.70;7.23;;;-6.50;99.90;;;;;;5017930;28;20435;-75
2022/12/06 07:09:14;;;;;;;14.33;8.73;;;-6.90;99.90;;;;;;5050129;28;20759;-79
2022/12/06 07:11:41;;;;;;;24.70;8.47;;;-7.40;99.90;;;;;;5017841;28;20468;-75
2022/12/06 07:14:06;;;;;;;12.17;7.43;;;-7.00;99.90;;;;;;5024935;28;20596;-80
2022/12/06 07:16:32;;;;;;;13.17;8.80;;;-6.60;99.90;;;;;;5019694;28;20519;-83
2022/12/06 07:18:58;;;;;;;10.93;6.80;;;-7.50;99.90;;;;;;5017832;28;20191;-74
2022/12/06 07:21:24;;;;;;;13.50;7.70;;;-7.00;99.90;;;;;;5049693;28;20178;-74
2022/12/06 07:23:50;;;;;;;13.93;7.93;;;-6.30;99.90;;;;;;5017389;28;20273;-74
2022/12/06 07:26:18;;;;;;;12.13;7.37;;;-7.10;99.90;;;;;;5017369;28;20186;-74
2022/12/06 07:28:46;;;;;;;12.40;7.87;;;-6.90;99.90;;;;;;5017047;28;20442;-74
2022/12/06 07:31:21;;;;;;;17.93;8.70;;;-5.40;99.90;;;;;;5020863;28;20888;-74
2022/12/06 07:33:47;;;;;;;13.23;8.73;;;-6.30;99.90;;;;;;5020284;28;20881;-80
2022/12/06 07:36:15;;;;;;;18.13;9.30;;;-6.10;99.90;;;;;;5017665;28;20479;-77
2022/12/06 07:38:42;;;;;;;12.33;8.33;;;-5.90;99.90;;;;;;5017295;28;20511;-75
2022/12/06 07:46:41;;;;;;;11.93;8.43;;;-5.10;99.90;;;;;;5017127;28;20439;-75
2022/12/06 07:49:08;;;;;;;13.53;8.07;;;-6.90;99.90;;;;;;5029994;28;20424;-76
2022/12/06 07:51:34;;;;;;;12.93;8.40;;;-6.30;99.90;;;;;;5016965;28;20891;-77
2022/12/06 07:54:00;;;;;;;19.57;8.53;;;-4.40;99.90;;;;;;5024322;28;20537;-74
2022/12/06 07:56:26;;;;;;;20.27;9.37;;;-7.20;99.90;;;;;;5016336;28;20582;-76
2022/12/06 07:58:52;;;;;;;11.07;7.77;;;-7.50;99.90;;;;;;5016753;28;20274;-74
2022/12/06 08:01:18;;;;;;;17.23;9.00;;;-6.90;99.90;;;;;;5017003;28;20420;-74
2022/12/06 08:03:44;;;;;;;14.33;9.17;;;-6.80;99.90;;;;;;5016043;28;20452;-74
2022/12/06 08:06:10;;;;;;;32.87;19.27;;;-7.30;99.90;;;;;;5016736;28;20238;-76
2022/12/06 08:08:36;;;;;;;22.57;13.37;;;-7.20;99.90;;;;;;5016747;28;20257;-77
2022/12/06 08:11:04;;;;;;;15.53;9.87;;;-7.30;99.90;;;;;;5015988;28;20231;-76
2022/12/06 08:13:31;;;;;;;31.13;15.47;;;-7.20;99.90;;;;;;5015005;28;20434;-77
2022/12/06 08:15:56;;;;;;;18.40;11.17;;;-7.20;99.90;;;;;;5016666;28;20463;-79
2022/12/06 08:18:24;;;;;;;17.37;10.47;;;-7.00;99.90;;;;;;5016834;28;20465;-83
2022/12/06 08:20:51;;;;;;;16.83;10.27;;;-7.80;99.90;;;;;;5016516;28;20179;-81
2022/12/06 08:23:18;;;;;;;18.30;10.97;;;-8.20;99.90;;;;;;5016477;28;20429;-80
2022/12/06 08:25:43;;;;;;;23.57;10.33;;;-5.90;99.90;;;;;;5016596;28;20434;-82
2022/12/06 08:28:09;;;;;;;20.00;10.33;;;-5.90;99.90;;;;;;5020923;28;20560;-81
2022/12/06 08:30:38;;;;;;;25.23;11.17;;;-7.50;99.90;;;;;;5015677;28;20191;-82
2022/12/06 08:33:04;;;;;;;13.40;9.97;;;-7.50;99.90;;;;;;5016045;28;20247;-78
2022/12/06 08:35:30;;;;;;;15.63;10.70;;;-5.70;99.90;;;;;;5016319;28;20475;-83
2022/12/06 08:37:56;;;;;;;14.67;8.33;;;-7.00;99.90;;;;;;5015772;28;20638;-83
2022/12/06 08:40:22;;;;;;;19.47;9.87;;;-4.80;99.90;;;;;;5016321;28;20218;-83
2022/12/06 08:42:47;;;;;;;11.43;9.03;;;-6.30;99.90;;;;;;5016126;28;20299;-77
2022/12/06 08:45:13;;;;;;;19.97;10.63;;;-4.80;99.90;;;;;;5016017;28;20216;-78
2022/12/06 08:47:39;;;;;;;21.43;10.97;;;-6.20;99.90;;;;;;5016255;28;20234;-78
2022/12/06 08:50:05;;;;;;;18.17;9.70;;;-5.80;99.90;;;;;;5015889;28;20203;-77
2022/12/06 08:52:31;;;;;;;50.37;29.10;;;-6.00;99.90;;;;;;5015590;28;20212;-75
2022/12/06 08:54:57;;;;;;;40.43;23.27;;;-5.00;99.90;;;;;;5015669;28;20927;-76
2022/12/06 08:57:23;;;;;;;56.10;32.47;;;-6.10;99.90;;;;;;5016063;28;20195;-76
2022/12/06 08:59:50;;;;;;;27.23;17.23;;;-6.60;99.90;;;;;;5016076;28;20597;-75
2022/12/06 09:02:16;;;;;;;19.83;12.43;;;-5.10;99.90;;;;;;5016143;28;20432;-75
2022/12/06 09:04:41;;;;;;;24.27;14.43;;;-6.40;99.90;;;;;;5016442;28;20772;-75
2022/12/06 09:07:08;;;;;;;32.87;18.77;;;-7.00;99.90;;;;;;5016354;28;20243;-82
2022/12/06 09:09:33;;;;;;;27.40;17.53;;;-7.40;99.90;;;;;;5017808;28;20181;-77
2022/12/06 09:11:59;;;;;;;42.43;29.23;;;-9.40;99.90;;;;;;5016553;28;20545;-74
2022/12/06 09:14:25;;;;;;;31.53;18.03;;;-6.90;99.90;;;;;;5016463;28;20573;-79
2022/12/06 09:16:51;;;;;;;42.50;20.57;;;-10.10;99.90;;;;;;5015189;28;20202;-76
2022/12/06 09:19:18;;;;;;;57.23;33.97;;;-11.10;99.90;;;;;;5015940;28;20188;-78
2022/12/06 09:21:45;;;;;;;38.80;22.00;;;-11.00;99.90;;;;;;5016936;28;20470;-85
2022/12/06 09:24:13;;;;;;;18.87;11.93;;;-10.40;99.90;;;;;;5018577;28;20456;-82
2022/12/06 09:26:40;;;;;;;25.30;16.90;;;-11.10;99.90;;;;;;5019631;28;20719;-76
2022/12/06 09:29:05;;;;;;;20.90;12.70;;;-11.40;99.90;;;;;;5030190;28;20426;-75
2022/12/06 09:31:31;;;;;;;18.80;12.40;;;-10.30;99.90;;;;;;5021545;28;20217;-75
2022/12/06 09:33:57;;;;;;;28.50;16.93;;;-10.50;99.90;;;;;;5017583;28;20184;-82
2022/12/06 09:36:26;;;;;;;19.53;12.20;;;-9.70;99.90;;;;;;5015454;28;20252;-79
2022/12/06 09:39:06;;;;;;;19.07;12.97;;;-10.30;99.90;;;;;;5015450;28;20636;-75
2022/12/06 09:42:01;;;;;;;32.77;19.20;;;-10.70;99.90;;;;;;5015843;28;20173;-80
2022/12/06 09:44:33;;;;;;;31.10;17.93;;;-10.40;99.90;;;;;;5014842;28;20209;-78
2022/12/06 09:47:11;;;;;;;23.30;11.33;;;-9.80;99.90;;;;;;5015560;28;20185;-82
2022/12/06 09:50:09;;;;;;;20.57;12.50;;;-10.40;99.90;;;;;;5028463;28;20584;-81
2022/12/06 09:53:06;;;;;;;13.03;9.20;;;-9.90;99.90;;;;;;5015089;28;20473;-78
2022/12/06 09:56:09;;;;;;;21.97;12.80;;;-10.70;99.90;;;;;;5015115;28;20201;-75
2022/12/06 09:59:09;;;;;;;21.30;10.37;;;-11.20;99.90;;;;;;5015228;28;20192;-76
2022/12/06 10:02:00;;;;;;;19.37;10.97;;;-11.70;99.90;;;;;;5024691;28;20278;-77
2022/12/06 10:04:54;;;;;;;19.93;11.20;;;-11.10;99.90;;;;;;5015506;28;20193;-75
2022/12/06 10:07:22;;;;;;;36.87;26.00;;;-10.80;99.90;;;;;;5015294;28;20182;-75
2022/12/06 10:10:29;;;;;;;13.87;12.00;;;-10.60;99.90;;;;;;5015228;28;20220;-75
2022/12/06 10:13:16;;;;;;;17.33;10.03;;;-9.70;99.90;;;;;;5022457;28;20253;-75
2022/12/06 10:15:57;;;;;;;9.77;6.97;;;-10.10;99.90;;;;;;5015133;28;20185;-74
2022/12/06 10:18:38;;;;;;;14.53;7.87;;;-7.80;99.90;;;;;;5014748;28;20236;-75
2022/12/06 10:21:13;;;;;;;13.60;12.17;;;-8.50;99.90;;;;;;5014650;28;20178;-75
2022/12/06 10:24:06;;;;;;;11.37;9.83;;;-9.30;99.90;;;;;;5018504;28;20192;-77
2022/12/06 10:26:49;;;;;;;8.87;6.47;;;-10.60;99.90;;;;;;5017395;28;20212;-78
2022/12/06 10:29:45;;;;;;;8.23;6.77;;;-9.80;99.90;;;;;;5020549;28;20252;-75
2022/12/06 10:32:17;;;;;;;9.70;6.73;;;-9.80;99.90;;;;;;5028070;28;20631;-75
2022/12/06 10:34:46;;;;;;;10.13;7.63;;;-8.90;99.90;;;;;;5030316;28;20177;-77
2022/12/06 10:37:44;;;;;;;9.60;6.67;;;-9.70;99.90;;;;;;5050372;28;20462;-78
2022/12/06 10:40:13;;;;;;;13.00;7.93;;;-9.00;99.90;;;;;;5019584;28;20573;-74
2022/12/06 10:43:01;;;;;;;7.43;6.73;;;-8.90;99.90;;;;;;5018187;28;20441;-75
2022/12/06 10:48:51;;;;;;;9.13;5.77;;;-8.30;99.90;;;;;;5018333;28;20200;-78
2022/12/06 10:51:24;;;;;;;7.47;4.63;;;-9.20;99.90;;;;;;5018059;28;20523;-76
2022/12/06 10:53:56;;;;;;;7.17;5.03;;;-7.50;99.90;;;;;;5018205;28;20504;-75
2022/12/06 10:56:34;;;;;;;6.10;4.67;;;-8.50;99.90;;;;;;5031620;28;20440;-76
2022/12/06 10:59:14;;;;;;;6.30;5.03;;;-9.50;99.90;;;;;;5018178;28;20473;-76
2022/12/06 11:01:42;;;;;;;6.03;5.00;;;-10.30;99.90;;;;;;5017843;28;20430;-78
2022/12/06 11:04:33;;;;;;;5.67;5.10;;;-10.00;99.90;;;;;;5017715;28;20461;-74
2022/12/06 11:07:11;;;;;;;9.07;5.80;;;-10.00;99.90;;;;;;5017534;28;20272;-74
2022/12/06 11:09:48;;;;;;;6.77;6.03;;;-10.10;99.90;;;;;;5017927;28;20597;-75
2022/12/06 11:12:32;;;;;;;7.93;7.23;;;-9.30;99.90;;;;;;5018093;28;20450;-74
2022/12/06 11:15:13;;;;;;;6.40;4.37;;;-10.50;99.90;;;;;;5017942;28;20236;-74
2022/12/06 11:17:46;;;;;;;8.87;5.23;;;-10.40;99.90;;;;;;5017256;28;20173;-74
2022/12/06 11:20:15;;;;;;;6.60;3.80;;;-11.60;99.90;;;;;;5017715;28;20203;-75
2022/12/06 11:23:07;;;;;;;8.17;4.93;;;-11.10;99.90;;;;;;5017704;28;20184;-77
2022/12/06 11:25:51;;;;;;;12.73;4.77;;;-11.40;99.90;;;;;;5017844;28;20260;-75
2022/12/06 11:28:42;;;;;;;10.00;4.27;;;-12.00;99.90;;;;;;5017485;28;20616;-78
2022/12/06 11:31:31;;;;;;;5.93;4.37;;;-11.50;99.90;;;;;;5023584;28;20205;-79
2022/12/06 11:33:58;;;;;;;7.30;5.00;;;-10.50;99.90;;;;;;5021669;28;20213;-74
2022/12/06 11:36:25;;;;;;;6.60;5.13;;;-10.60;99.90;;;;;;5022818;28;20803;-77
2022/12/06 11:38:52;;;;;;;5.57;4.70;;;-11.00;99.90;;;;;;5016852;28;20188;-75
2022/12/06 11:41:25;;;;;;;5.60;5.07;;;-11.30;99.90;;;;;;5023084;28;20429;-76
2022/12/06 11:43:51;;;;;;;6.70;4.67;;;-11.00;99.90;;;;;;5016958;28;20191;-74
2022/12/06 11:46:18;;;;;;;5.53;4.97;;;-10.40;99.90;;;;;;5018344;28;20189;-81
2022/12/06 11:48:44;;;;;;;10.77;7.23;;;-11.00;99.90;;;;;;5018649;28;20192;-82
2022/12/06 11:51:23;;;;;;;11.27;6.13;;;-10.90;99.90;;;;;;5050636;28;20473;-86
2022/12/06 11:54:04;;;;;;;15.63;6.57;;;-10.30;99.90;;;;;;5050073;28;20616;-86
2022/12/06 11:56:37;;;;;;;14.30;5.77;;;-9.90;99.90;;;;;;5019188;28;20252;-81
2022/12/06 11:59:28;;;;;;;12.20;7.00;;;-10.40;99.90;;;;;;5018356;28;20192;-76
2022/12/06 12:02:02;;;;;;;10.13;5.73;;;-10.80;99.90;;;;;;5026669;28;20178;-82
2022/12/06 12:04:43;;;;;;;12.83;8.73;;;-10.70;99.90;;;;;;5026406;28;20188;-78
2022/12/06 12:07:09;;;;;;;9.67;6.70;;;-9.90;99.90;;;;;;5018059;28;20577;-82
2022/12/06 12:09:46;;;;;;;10.83;8.00;;;-10.40;99.90;;;;;;5018549;28;20643;-82
2022/12/06 12:12:16;;;;;;;9.73;7.50;;;-10.70;99.90;;;;;;5016618;28;20205;-76
2022/12/06 12:14:42;;;;;;;10.53;8.27;;;-10.90;99.90;;;;;;5016720;28;20231;-74
2022/12/06 12:17:19;;;;;;;13.47;8.97;;;-10.30;99.90;;;;;;5016678;28;20231;-74
2022/12/06 12:19:50;;;;;;;10.83;7.20;;;-9.70;99.90;;;;;;5022025;28;20190;-74
2022/12/06 12:22:20;;;;;;;10.03;7.07;;;-10.00;99.90;;;;;;5028570;28;20188;-73
2022/12/06 12:24:57;;;;;;;10.97;7.77;;;-8.90;99.90;;;;;;5016359;28;20204;-73
2022/12/06 12:27:40;;;;;;;12.20;7.47;;;-9.70;99.90;;;;;;5016362;28;20254;-74
2022/12/06 12:30:19;;;;;;;9.20;7.17;;;-10.10;99.90;;;;;;5048204;28;20181;-73
2022/12/06 12:32:46;;;;;;;9.60;7.37;;;-9.80;99.90;;;;;;5016350;28;20216;-74
2022/12/06 12:35:21;;;;;;;9.20;6.67;;;-10.30;99.90;;;;;;5016422;28;20176;-74
2022/12/06 12:37:53;;;;;;;8.80;8.00;;;-9.30;99.90;;;;;;5016503;28;20184;-74
2022/12/06 12:40:29;;;;;;;10.90;7.47;;;-8.80;99.90;;;;;;5016369;28;20200;-75
2022/12/06 12:43:01;;;;;;;13.03;8.80;;;-7.80;99.90;;;;;;5016304;28;20188;-74
2022/12/06 12:45:28;;;;;;;9.13;7.33;;;-8.50;99.90;;;;;;5016409;28;20196;-75
2022/12/06 12:48:25;;;;;;;10.60;9.03;;;-10.40;99.90;;;;;;5017130;28;20184;-77
2022/12/06 12:50:59;;;;;;;8.83;6.40;;;-9.20;99.90;;;;;;5027668;28;20181;-76
2022/12/06 12:53:39;;;;;;;10.00;6.50;;;-9.50;99.90;;;;;;5027273;28;20172;-76
2022/12/06 12:56:13;;;;;;;14.03;5.97;;;-10.00;99.90;;;;;;5016901;28;20187;-74
2022/12/06 12:58:40;;;;;;;5.27;3.80;;;-11.90;99.90;;;;;;5016433;28;20624;-74
2022/12/06 13:01:18;;;;;;;11.47;5.90;;;-8.90;99.90;;;;;;5016346;28;20173;-77
2022/12/06 13:03:46;;;;;;;15.43;6.03;;;-11.00;99.90;;;;;;5015928;28;20502;-79
2022/12/06 13:06:26;;;;;;;13.20;5.33;;;-10.80;99.90;;;;;;5016244;28;20177;-77
2022/12/06 13:08:55;;;;;;;13.40;5.37;;;-11.00;99.90;;;;;;5016525;28;20185;-75
2022/12/06 13:11:21;;;;;;;7.10;4.80;;;-11.40;99.90;;;;;;5016314;28;20586;-79
2022/12/06 13:13:51;;;;;;;5.90;3.77;;;-9.40;99.90;;;;;;5016221;28;20174;-78
2022/12/06 13:16:43;;;;;;;6.57;4.60;;;-12.20;99.90;;;;;;5020505;28;20181;-75
2022/12/06 13:19:15;;;;;;;15.90;6.03;;;-11.40;99.90;;;;;;5026045;28;20195;-77
2022/12/06 13:21:50;;;;;;;15.27;5.40;;;-10.70;99.90;;;;;;5029830;28;20213;-81